Pagrindinis puslapis
METAR-TAF:

METAR-TAF

Oro uostai :

El Palmar

Santa Ana, Salvadoras

platuma: 13-59N, ilguma: 089-34W, Aukštis: 725 m

Dabartinis oras

Ataskaita buvo paskelbta 4 valandos ir 45 minutes, ne 22:50 UTC
Vėjas 4 kt iš Šiaurės/Šiaurės Rytų
Temperatūra 35°C
Drėgmė 30%
Slėgis 1015 hPa
Matomumas 10 km arba daugiau
Mažai debesys ne aukštis 3300 ft
Išsisklaidę debesys ne aukštis 4300 ft

METAR: MSSA 242250Z 02004KT 9999 FEW033 SCT043 35/15 Q1015 A2998

Laikas: 21:35 (03:35 UTC)


TAF: trūkstamas

Orai ataskaitas ir orų prognozės (METAR, TAF).

turimą stotys yra geltonos ir raudonos taškus žemėlapyje.

Perkelti pele per norėdami pamatyti stoties vardą.

Tada spustelėkite, norėdami matyti oro stebėjimo ir prognozės.

Norėdami pakeisti žemėlapį: spustelėkite ant žalios mygtukų su juodo kryžiaus žemyn,; žalią mygtuką su brūkšneliu, jei norite nutolinti; arba žalių rodyklių gretimoms žemėlapius.


METAR-TAF: